Messwerte Rock Hill

Temperatur

Temperatur
°C
1574290800 18.00 18.00 10
1574294400 19.00 19.00 8
1574298000 20.00 20.00 7
1574301600 21.00 21.00 6
1574305200 22.00 22.00 4
1574308800 23.00 23.00 4
1574312400 0.00 0.00 3
1574316000 1.00 1.00 3
1574319600 2.00 2.00 2
1574323200 3.00 3.00 3
1574326800 4.00 4.00
1574330400 5.00 5.00 2
1574334000 6.00 6.00 1
1574337600 7.00 7.00 1
1574341200 8.00 8.00 2
1574344800 9.00 9.00 7
1574348400 10.00 10.00 10
1574352000 11.00 11.00 12
1574355600 12.00 12.00 14
1574359200 13.00 13.00 14
1574362800 14.00 14.00 16
1574366400 15.00 15.00 16
1574370000 16.00 16.00 16
1574373600 17.00 17.00 15

Aktuellste Messwerte

Wettercharakter
Wetter: klar
Temperatur
13 °C
Feuchtigkeit
60 %
Wind
0 km/h, -
Luftdruck
1023 hPa
Messzeit: 21. November 2019, 18.00Datenquelle: METAR

Weitere Messstationen in der Nähe

Messstation Temperatur Entfernung
Gastonia 13 °C 25 km
Charlotte 12 °C 28 km
Monroe 12 °C 40 km
Concord 13 °C 55 km
Lincolnton 11 °C 55 km
Shelby 14 °C 58 km
Statesville 11 °C 87 km

Wind

Windrichtung Böen Mittelwind
° km/h km/h
1574290800 18.00 17.00 - 18.00 0
1574294400 19.00 18.00 - 19.00 0
1574298000 20.00 19.00 - 20.00 0
1574301600 21.00 20.00 - 21.00 0
1574305200 22.00 21.00 - 22.00 0
1574308800 23.00 22.00 - 23.00 0
1574312400 0.00 23.00 - 0.00 0
1574316000 1.00 0.00 - 1.00 0
1574319600 2.00 1.00 - 2.00 0
1574323200 3.00 2.00 - 3.00 0
1574326800 4.00 3.00 - 4.00
1574330400 5.00 4.00 - 5.00 0
1574334000 6.00 5.00 - 6.00 0
1574337600 7.00 6.00 - 7.00 0
1574341200 8.00 7.00 - 8.00 0
1574344800 9.00 8.00 - 9.00 0
1574348400 10.00 9.00 - 10.00 5
1574352000 11.00 10.00 - 11.00 5
1574355600 12.00 11.00 - 12.00
1574359200 13.00 12.00 - 13.00 270° 15
1574362800 14.00 13.00 - 14.00 5
1574366400 15.00 14.00 - 15.00 210° 10
1574370000 16.00 15.00 - 16.00 230° 15
1574373600 17.00 16.00 - 17.00 200° 10

Ihre Wetterstation

Fehlt Ihre Wetterstation auf unserem Portal?

Schreiben Sie an network@meteonews.ch

Klima

Wann ist es am wärmsten? Wann regnet es am wenigsten? Unsere Klimadaten geben Auskunft.